createdAt,value
2018-06-19T00:01:30.994Z,98056.70
2018-06-19T00:03:59.819Z,98082.06
2018-06-19T00:06:28.710Z,98069.89
2018-06-19T00:08:57.598Z,98050.60
2018-06-19T00:11:26.207Z,98033.36
2018-06-19T00:13:54.937Z,98050.60
2018-06-19T00:16:23.689Z,98021.17
2018-06-19T00:18:56.818Z,98031.33
2018-06-19T00:21:35.458Z,97992.77
2018-06-19T00:24:04.511Z,98053.66
2018-06-19T00:26:33.306Z,98069.89
2018-06-19T00:29:02.026Z,98120.63
2018-06-19T00:31:30.661Z,98112.50
2018-06-19T00:33:59.273Z,98110.48
2018-06-19T00:36:27.845Z,98124.68
2018-06-19T00:38:56.351Z,98099.31
2018-06-19T00:41:24.871Z,98075.97
2018-06-19T00:43:53.456Z,98085.11
2018-06-19T00:46:24.543Z,98109.46
2018-06-19T00:48:53.054Z,98148.02
2018-06-19T00:51:21.686Z,98108.45
2018-06-19T00:53:50.183Z,98125.70
2018-06-19T00:57:01.030Z,98103.37
2018-06-19T00:59:29.578Z,98073.95
2018-06-19T01:01:59.736Z,98053.66
2018-06-19T01:04:28.278Z,98073.95
2018-06-19T01:06:56.895Z,98068.88
2018-06-19T01:09:25.378Z,98059.73
2018-06-19T01:11:54.063Z,98055.68
2018-06-19T01:14:22.563Z,98073.95
2018-06-19T01:16:51.118Z,98067.86
2018-06-19T01:19:19.667Z,98036.40
2018-06-19T01:21:48.170Z,98080.03
2018-06-19T01:24:17.334Z,98057.70
2018-06-19T01:26:45.877Z,98050.60
2018-06-19T01:29:14.852Z,98070.90
2018-06-19T01:31:43.358Z,98046.55
2018-06-19T01:34:11.838Z,98000.88
2018-06-19T01:36:40.423Z,97995.81
2018-06-19T01:39:10.418Z,98046.55
2018-06-19T01:41:38.905Z,97996.83
2018-06-19T01:44:07.659Z,98006.97
2018-06-19T01:46:36.144Z,97993.78
2018-06-19T01:49:04.863Z,98032.34
2018-06-19T01:51:33.373Z,98047.56
2018-06-19T01:54:01.914Z,97992.77
2018-06-19T01:56:30.463Z,98002.91
2018-06-19T01:58:58.955Z,98028.28
2018-06-19T02:01:27.474Z,97993.78
2018-06-19T02:03:56.107Z,98080.03
2018-06-19T02:06:24.631Z,98007.98
2018-06-19T02:08:53.100Z,98057.70
2018-06-19T02:11:21.647Z,98035.38
2018-06-19T02:13:50.171Z,98028.28
2018-06-19T02:16:18.781Z,98029.30
2018-06-19T02:18:47.282Z,98081.05
2018-06-19T02:21:15.862Z,98025.23
2018-06-19T02:23:44.455Z,98048.58
2018-06-19T02:26:12.969Z,98058.72
2018-06-19T02:28:41.470Z,98043.50
2018-06-19T02:31:10.036Z,98051.63
2018-06-19T02:33:38.566Z,98034.37
2018-06-19T02:36:07.056Z,97970.45
2018-06-19T02:38:35.583Z,98053.66
2018-06-19T02:41:04.206Z,98040.45
2018-06-19T02:43:32.708Z,98050.60
2018-06-19T02:46:01.226Z,98022.19
2018-06-19T02:48:29.793Z,98048.58
2018-06-19T02:50:59.306Z,98048.58
2018-06-19T02:53:27.773Z,98064.81
2018-06-19T02:55:56.307Z,98057.70
2018-06-19T02:58:24.769Z,98046.55
2018-06-19T03:00:53.264Z,98026.25
2018-06-19T03:03:21.822Z,98026.25
2018-06-19T03:05:50.303Z,98002.91
2018-06-19T03:08:18.915Z,98000.88
2018-06-19T03:10:47.453Z,98036.40
2018-06-19T03:13:15.978Z,98034.37
2018-06-19T03:15:44.481Z,98053.66
2018-06-19T03:18:12.994Z,98029.30
2018-06-19T03:20:41.603Z,98056.70
2018-06-19T03:23:10.130Z,98004.94
2018-06-19T03:25:38.609Z,98033.36
2018-06-19T03:28:07.110Z,98000.88
2018-06-19T03:30:35.660Z,98015.09
2018-06-19T03:33:04.139Z,98009.00
2018-06-19T03:35:32.608Z,98009.00
2018-06-19T03:38:01.151Z,98006.97
2018-06-19T03:40:29.632Z,98069.89
2018-06-19T03:42:58.151Z,98035.38
2018-06-19T03:45:26.826Z,98041.47
2018-06-19T03:47:55.327Z,98009.00
2018-06-19T03:50:24.188Z,98010.02
2018-06-19T03:52:52.708Z,98012.05
2018-06-19T03:55:21.198Z,98040.45
2018-06-19T03:57:49.868Z,98029.30
2018-06-19T04:00:18.670Z,98026.25
2018-06-19T04:02:47.182Z,97992.77
2018-06-19T04:05:15.794Z,97983.64
2018-06-19T04:07:44.334Z,98048.58
2018-06-19T04:10:13.030Z,98025.23
2018-06-19T04:12:41.533Z,98033.36
2018-06-19T04:15:10.060Z,98035.38
2018-06-19T04:17:39.216Z,97995.81
2018-06-19T04:20:07.762Z,98031.33
2018-06-19T04:22:36.313Z,98026.25
2018-06-19T04:25:04.907Z,98005.95
2018-06-19T04:27:33.829Z,97975.52
2018-06-19T04:30:02.342Z,97997.84
2018-06-19T04:32:30.889Z,97977.55
2018-06-19T04:34:59.411Z,98001.90
2018-06-19T04:37:27.915Z,97990.73
2018-06-19T04:39:57.065Z,98027.27
2018-06-19T04:42:26.287Z,97989.72
2018-06-19T04:44:55.509Z,97960.30
2018-06-19T04:47:24.014Z,97984.65
2018-06-19T04:49:52.647Z,97978.56
2018-06-19T04:52:21.157Z,97942.03
2018-06-19T04:54:49.642Z,97952.17
2018-06-19T04:57:18.207Z,97929.86
2018-06-19T04:59:46.835Z,97911.59
2018-06-19T05:02:15.360Z,97930.88
2018-06-19T05:04:43.890Z,97929.86
2018-06-19T05:07:12.451Z,97932.90
2018-06-19T05:09:41.535Z,97898.41
2018-06-19T05:12:10.048Z,97917.68
2018-06-19T05:14:38.900Z,97951.16
2018-06-19T05:17:07.451Z,97950.15
2018-06-19T05:19:36.007Z,97920.72
2018-06-19T05:22:04.572Z,97927.83
2018-06-19T05:24:33.087Z,97925.80
2018-06-19T05:27:01.615Z,97944.06
2018-06-19T05:29:30.151Z,97935.94
2018-06-19T05:31:58.831Z,97910.58
2018-06-19T05:34:27.371Z,97904.48
2018-06-19T05:36:59.755Z,97931.88
2018-06-19T05:39:28.326Z,97896.38
2018-06-19T05:41:57.267Z,97873.03
2018-06-19T05:44:25.897Z,97892.31
2018-06-19T05:46:54.551Z,97956.23
2018-06-19T05:49:23.061Z,97936.95
2018-06-19T05:51:52.336Z,97947.11
2018-06-19T05:54:20.838Z,97955.22
2018-06-19T05:56:49.866Z,97989.72
2018-06-19T05:59:18.396Z,98015.09
2018-06-19T06:01:46.920Z,97980.59
2018-06-19T06:04:16.133Z,97946.09
2018-06-19T06:06:44.678Z,97978.56
2018-06-19T06:09:13.187Z,97960.30
2018-06-19T06:11:41.819Z,97933.91
2018-06-19T06:14:12.018Z,97954.21
2018-06-19T06:16:41.068Z,97948.12
2018-06-19T06:19:09.567Z,97877.09
2018-06-19T06:21:38.076Z,97947.11
2018-06-19T06:24:06.730Z,97910.58
2018-06-19T06:26:35.281Z,97806.06
2018-06-19T06:29:04.753Z,97874.05
2018-06-19T06:31:33.338Z,97878.11
2018-06-19T06:34:01.907Z,97866.95
2018-06-19T06:36:30.426Z,97800.99
2018-06-19T06:38:59.023Z,97818.24
2018-06-19T06:41:27.582Z,97812.16
2018-06-19T06:43:56.112Z,97778.67
2018-06-19T06:46:24.660Z,97786.79
2018-06-19T06:48:53.210Z,97804.03
2018-06-19T06:51:21.846Z,97811.14
2018-06-19T06:53:51.926Z,97779.69
2018-06-19T06:56:20.446Z,97802.01
2018-06-19T06:58:49.565Z,97792.88
2018-06-19T07:01:18.133Z,97738.08
2018-06-19T07:03:46.655Z,97720.84
2018-06-19T07:06:15.187Z,97700.55
2018-06-19T07:08:43.863Z,97739.09
2018-06-19T07:11:12.386Z,97736.05
2018-06-19T07:13:40.927Z,97739.09
2018-06-19T07:16:09.491Z,97771.57
2018-06-19T07:18:38.102Z,97882.17
2018-06-19T07:21:06.946Z,97790.84
2018-06-19T07:23:35.469Z,97803.02
2018-06-19T07:26:04.039Z,97810.12
2018-06-19T07:28:32.564Z,97759.39
2018-06-19T07:31:01.131Z,97759.39
2018-06-19T07:33:29.658Z,97652.86
2018-06-19T07:35:59.077Z,97660.97
2018-06-19T07:38:27.749Z,97708.66
2018-06-19T07:40:56.214Z,97630.53
2018-06-19T07:43:24.771Z,97581.84
2018-06-19T07:45:53.300Z,97616.33
2018-06-19T07:48:21.819Z,97596.04
2018-06-19T07:50:51.212Z,97562.56
2018-06-19T07:53:20.456Z,97524.00
2018-06-19T07:55:49.394Z,97568.64
2018-06-19T07:58:17.915Z,97644.74
2018-06-19T08:00:46.491Z,97655.90
2018-06-19T08:03:15.064Z,97645.75
2018-06-19T08:05:43.604Z,97643.73
2018-06-19T08:08:12.508Z,97634.59
2018-06-19T08:10:41.535Z,97653.87
2018-06-19T08:13:10.067Z,97705.62
2018-06-19T08:15:38.628Z,97724.89
2018-06-19T08:18:08.776Z,97667.06
2018-06-19T08:20:37.283Z,97708.66
2018-06-19T08:23:05.880Z,97728.95
2018-06-19T08:25:34.394Z,97683.30
2018-06-19T08:28:02.971Z,97710.69
2018-06-19T08:30:31.478Z,97778.67
2018-06-19T08:33:00.017Z,97788.81
2018-06-19T08:35:28.591Z,97738.08
2018-06-19T08:37:57.099Z,97772.58
2018-06-19T08:40:25.631Z,97751.27
2018-06-19T08:42:54.159Z,97703.59
2018-06-19T08:45:22.710Z,97775.63
2018-06-19T08:47:51.228Z,97792.88
2018-06-19T08:50:20.023Z,97715.77
2018-06-19T08:52:48.563Z,97702.58
2018-06-19T08:55:18.117Z,97749.25
2018-06-19T08:57:46.670Z,97685.33
2018-06-19T09:00:15.349Z,97651.84
2018-06-19T09:02:43.880Z,97640.68
2018-06-19T09:05:12.437Z,97616.33
2018-06-19T09:07:40.946Z,97653.87
2018-06-19T09:10:09.942Z,97555.45
2018-06-19T09:12:38.478Z,97470.23
2018-06-19T09:15:07.094Z,97409.36
2018-06-19T09:17:35.687Z,97486.47
2018-06-19T09:20:04.284Z,97478.34
2018-06-19T09:22:32.843Z,97397.19
2018-06-19T09:25:01.363Z,97576.77
2018-06-19T09:27:29.875Z,97505.74
2018-06-19T09:29:58.381Z,97560.53
2018-06-19T09:32:26.915Z,97553.42
2018-06-19T09:34:55.416Z,97545.31
2018-06-19T09:37:24.346Z,97556.47
2018-06-19T09:39:53.715Z,97528.06
2018-06-19T09:42:22.238Z,97483.42
2018-06-19T09:44:50.816Z,97439.80
2018-06-19T09:47:19.338Z,97496.61
2018-06-19T09:49:47.911Z,97463.13
2018-06-19T09:52:16.806Z,97469.22
2018-06-19T09:54:45.435Z,97541.25
2018-06-19T09:57:13.930Z,97529.08
2018-06-19T09:59:42.706Z,97505.74
2018-06-19T10:02:11.519Z,97569.66
2018-06-19T10:04:40.055Z,97531.11
2018-06-19T10:07:08.726Z,97573.72
2018-06-19T10:09:37.359Z,97540.23
2018-06-19T10:12:05.986Z,97465.16
2018-06-19T10:14:34.594Z,97419.51
2018-06-19T10:17:03.126Z,97345.45
2018-06-19T10:19:32.736Z,97363.70
2018-06-19T10:22:01.226Z,97320.08
2018-06-19T10:24:29.780Z,97318.05
2018-06-19T10:26:58.672Z,97192.26
2018-06-19T10:29:27.195Z,97236.89
2018-06-19T10:31:55.846Z,97078.64
2018-06-19T10:34:24.542Z,97137.48
2018-06-19T10:36:53.063Z,97384.00
2018-06-19T10:39:21.572Z,97301.82
2018-06-19T10:41:50.451Z,97251.09
2018-06-19T10:44:18.998Z,97295.73
2018-06-19T10:46:47.891Z,97429.65
2018-06-19T10:49:16.411Z,97395.16
2018-06-19T10:51:45.382Z,97339.36
2018-06-19T10:54:13.915Z,97235.88
2018-06-19T10:56:42.452Z,97302.84
2018-06-19T10:59:10.987Z,97387.04
2018-06-19T11:01:39.502Z,97442.84
2018-06-19T11:04:08.429Z,97484.44
2018-06-19T11:06:36.984Z,97556.47
2018-06-19T11:09:08.418Z,97423.56
2018-06-19T11:11:37.043Z,97351.53
2018-06-19T11:14:05.667Z,97227.77
2018-06-19T11:16:34.167Z,97162.84
2018-06-19T11:19:02.749Z,97121.24
2018-06-19T11:21:31.299Z,97256.17
2018-06-19T11:23:59.861Z,97298.78
2018-06-19T11:26:28.991Z,97365.73
2018-06-19T11:28:57.512Z,97472.27
2018-06-19T11:31:26.018Z,97535.16
2018-06-19T11:33:54.993Z,97487.48
2018-06-19T11:36:23.493Z,97474.30
2018-06-19T11:38:51.998Z,97569.66
2018-06-19T11:41:20.514Z,97446.90
2018-06-19T11:43:49.073Z,97432.70
2018-06-19T11:46:17.596Z,97481.39
2018-06-19T11:48:46.165Z,97534.16
2018-06-19T11:51:14.726Z,97533.14
2018-06-19T11:53:43.274Z,97495.59
2018-06-19T11:56:11.829Z,97432.70
2018-06-19T11:58:40.452Z,97500.67
2018-06-19T12:01:09.083Z,97525.02
2018-06-19T12:03:37.658Z,97425.59
2018-06-19T12:06:06.175Z,97435.73
2018-06-19T12:08:34.705Z,97271.39
2018-06-19T12:11:03.245Z,97203.41
2018-06-19T12:13:31.733Z,97267.33
2018-06-19T12:16:00.249Z,97333.27
2018-06-19T12:18:28.884Z,97255.16
2018-06-19T12:20:57.439Z,97337.33
2018-06-19T12:23:26.233Z,97282.55
2018-06-19T12:25:54.757Z,97209.50
2018-06-19T12:28:23.270Z,97327.19
2018-06-19T12:30:51.798Z,97142.55
2018-06-19T12:33:20.295Z,97328.20
2018-06-19T12:35:48.825Z,97176.02
2018-06-19T12:38:17.320Z,97321.09
2018-06-19T12:40:46.014Z,97199.36
2018-06-19T12:43:14.538Z,97170.95
2018-06-19T12:45:43.062Z,96932.56
2018-06-19T12:48:11.647Z,97129.36
2018-06-19T12:51:54.643Z,97204.43
2018-06-19T12:54:31.830Z,97076.61
2018-06-19T12:57:00.501Z,97209.50
2018-06-19T12:59:29.010Z,97223.70
2018-06-19T13:01:57.582Z,97089.80
2018-06-19T13:04:37.178Z,97084.72
2018-06-19T13:07:05.722Z,97145.59
2018-06-19T13:09:34.272Z,97048.20
2018-06-19T13:12:02.856Z,97034.00
2018-06-19T13:14:45.022Z,96860.54
2018-06-19T13:17:24.745Z,96968.06
2018-06-19T13:20:04.611Z,96641.44
2018-06-19T13:22:33.142Z,96870.69
2018-06-19T13:25:01.686Z,96863.58
2018-06-19T13:27:31.214Z,96689.12
2018-06-19T13:30:11.935Z,96773.30
2018-06-19T13:32:40.510Z,96725.63
2018-06-19T13:35:09.066Z,96748.96
2018-06-19T13:37:37.591Z,96872.72
2018-06-19T13:41:19.071Z,96956.91
2018-06-19T13:44:00.219Z,96922.41
2018-06-19T13:46:28.734Z,96978.20
2018-06-19T13:48:57.289Z,96998.50
2018-06-19T13:51:25.838Z,96832.14
2018-06-19T13:53:54.726Z,96923.43
2018-06-19T13:57:35.073Z,96700.27
2018-06-19T14:00:04.903Z,96845.33
2018-06-19T14:02:34.393Z,96956.91
2018-06-19T14:05:04.445Z,96971.11
2018-06-19T14:07:37.686Z,96877.78
2018-06-19T14:10:21.652Z,96831.13
2018-06-19T14:13:04.983Z,96844.31
2018-06-19T14:15:36.546Z,96742.88
2018-06-19T14:18:05.651Z,96744.91
2018-06-19T14:20:34.398Z,96838.22
2018-06-19T14:23:02.919Z,96856.48
2018-06-19T14:25:31.595Z,96895.03
2018-06-19T14:28:00.106Z,97019.80
2018-06-19T14:30:28.618Z,97037.05
2018-06-19T14:32:57.197Z,97043.13
2018-06-19T14:35:25.677Z,96981.25
2018-06-19T14:37:54.256Z,96953.86
2018-06-19T14:40:22.846Z,96867.64
2018-06-19T14:42:51.733Z,96965.02
2018-06-19T14:45:20.311Z,96971.11
2018-06-19T14:47:48.906Z,96969.08
2018-06-19T14:50:17.422Z,96924.45
2018-06-19T14:52:45.946Z,96761.13
2018-06-19T14:55:14.434Z,96812.87
2018-06-19T14:57:42.979Z,96857.50
2018-06-19T15:00:12.378Z,96941.69
2018-06-19T15:02:41.104Z,96865.61
2018-06-19T15:05:09.666Z,96780.41
2018-06-19T15:07:57.710Z,96791.56
2018-06-19T15:10:26.350Z,96942.70
2018-06-19T15:12:54.839Z,96835.18
2018-06-19T15:15:23.337Z,96934.59
2018-06-19T15:17:52.079Z,96883.87
2018-06-19T15:20:20.605Z,96816.92
2018-06-19T15:22:49.098Z,96951.83
2018-06-19T15:25:17.605Z,96864.59
2018-06-19T15:27:46.141Z,96901.12
2018-06-19T15:30:14.682Z,96920.39
2018-06-19T15:32:43.174Z,96907.20
2018-06-19T15:35:11.752Z,96952.85
2018-06-19T15:37:40.311Z,96902.12
2018-06-19T15:40:08.866Z,96920.39
2018-06-19T15:42:37.380Z,96894.02
2018-06-19T15:45:05.947Z,96902.12
2018-06-19T15:47:34.582Z,96887.93
2018-06-19T15:50:03.144Z,96968.06
2018-06-19T15:52:31.641Z,96984.30
2018-06-19T15:55:00.332Z,97055.30
2018-06-19T15:57:28.842Z,96984.30
2018-06-19T15:59:57.375Z,96874.74
2018-06-19T16:02:25.939Z,96956.91
2018-06-19T16:04:54.429Z,96988.35
2018-06-19T16:07:22.931Z,96958.94
2018-06-19T16:09:51.507Z,96968.06
2018-06-19T16:12:20.942Z,97028.93
2018-06-19T16:14:49.451Z,96983.28
2018-06-19T16:17:17.958Z,96969.08
2018-06-19T16:19:46.798Z,97056.32
2018-06-19T16:22:15.352Z,97087.77
2018-06-19T16:24:44.700Z,97099.94
2018-06-19T16:27:13.582Z,97130.38
2018-06-19T16:29:42.242Z,97052.27
2018-06-19T16:32:11.028Z,97031.97
2018-06-19T16:34:39.714Z,97043.13
2018-06-19T16:37:08.190Z,97020.81
2018-06-19T16:39:36.809Z,96968.06
2018-06-19T16:42:05.317Z,97034.00
2018-06-19T16:44:33.831Z,97101.97
2018-06-19T16:47:02.450Z,97107.04
2018-06-19T16:49:30.983Z,97017.77
2018-06-19T16:51:59.469Z,97034.00
2018-06-19T16:54:28.342Z,97021.83
2018-06-19T16:56:56.887Z,97139.50
2018-06-19T16:59:27.049Z,97187.19
2018-06-19T17:01:55.567Z,97185.16
2018-06-19T17:04:25.084Z,97078.64
2018-06-19T17:06:53.619Z,97120.23
2018-06-19T17:09:22.175Z,97123.27
2018-06-19T17:11:50.655Z,97055.30
2018-06-19T17:14:19.153Z,97110.09
2018-06-19T17:16:48.554Z,97105.02
2018-06-19T17:19:17.265Z,97148.63
2018-06-19T17:21:46.755Z,97146.61
2018-06-19T17:24:15.270Z,97171.97
2018-06-19T17:26:43.785Z,97074.58
2018-06-19T17:29:12.278Z,97160.81
2018-06-19T17:31:40.803Z,97189.21
2018-06-19T17:34:09.317Z,97152.69
2018-06-19T17:36:37.854Z,97170.95
2018-06-19T17:39:09.130Z,97162.84
2018-06-19T17:41:38.087Z,97164.87
2018-06-19T17:44:06.825Z,97206.46
2018-06-19T17:46:35.324Z,97184.14
2018-06-19T17:49:03.810Z,97205.44
2018-06-19T17:51:32.676Z,97236.89
2018-06-19T17:54:01.187Z,97162.84
2018-06-19T17:56:29.688Z,97181.09
2018-06-19T17:58:58.205Z,97144.58
2018-06-19T18:01:26.698Z,97223.70
2018-06-19T18:03:55.242Z,97168.92
2018-06-19T18:06:23.742Z,97157.77
2018-06-19T18:08:52.918Z,97213.56
2018-06-19T18:11:21.552Z,97219.64
2018-06-19T18:13:50.101Z,97209.50
2018-06-19T18:16:18.656Z,97254.14
2018-06-19T18:18:47.273Z,97234.87
2018-06-19T18:21:15.755Z,97212.55
2018-06-19T18:23:44.258Z,97197.33
2018-06-19T18:26:12.859Z,97247.03
2018-06-19T18:28:41.346Z,97229.80
2018-06-19T18:31:09.874Z,97233.84
2018-06-19T18:33:38.606Z,97179.07
2018-06-19T18:36:07.485Z,97221.67
2018-06-19T18:38:36.073Z,97264.28
2018-06-19T18:41:04.652Z,97254.14
2018-06-19T18:43:33.141Z,97281.53
2018-06-19T18:46:02.045Z,97238.92
2018-06-19T18:48:30.509Z,97270.38
2018-06-19T18:50:59.405Z,97290.66
2018-06-19T18:53:27.986Z,97289.64
2018-06-19T18:55:57.105Z,97302.84
2018-06-19T18:58:26.038Z,97264.28
2018-06-19T19:00:54.529Z,97274.43
2018-06-19T19:03:27.959Z,97265.30
2018-06-19T19:05:56.489Z,97272.40
2018-06-19T19:08:25.836Z,97276.46
2018-06-19T19:10:55.797Z,97295.73
2018-06-19T19:13:25.522Z,97307.91
2018-06-19T19:15:59.276Z,97262.26
2018-06-19T19:18:33.042Z,97297.77
2018-06-19T19:21:02.021Z,97300.80
2018-06-19T19:23:31.057Z,97331.23
2018-06-19T19:25:59.661Z,97332.25
2018-06-19T19:28:33.449Z,97320.08
2018-06-19T19:31:02.146Z,97331.23
2018-06-19T19:33:30.749Z,97340.37
2018-06-19T19:35:59.221Z,97375.88
2018-06-19T19:38:33.085Z,97340.37
2018-06-19T19:41:01.594Z,97406.31
2018-06-19T19:43:30.226Z,97381.97
2018-06-19T19:45:58.708Z,97396.17
2018-06-19T19:48:32.432Z,97382.98
2018-06-19T19:51:00.901Z,97389.07
2018-06-19T19:53:29.431Z,97404.29
2018-06-19T19:56:03.440Z,97414.43
2018-06-19T19:58:37.192Z,97418.49
2018-06-19T20:01:05.835Z,97334.28
2018-06-19T20:03:34.328Z,97360.66
2018-06-19T20:06:02.857Z,97369.80
2018-06-19T20:08:31.435Z,97377.91
2018-06-19T20:10:59.962Z,97411.39
2018-06-19T20:13:28.468Z,97451.97
2018-06-19T20:15:56.934Z,97413.42
2018-06-19T20:18:25.430Z,97402.26
2018-06-19T20:20:53.906Z,97456.03
2018-06-19T20:23:22.421Z,97462.12
2018-06-19T20:25:50.909Z,97454.00
2018-06-19T20:28:19.401Z,97423.56
2018-06-19T20:30:47.914Z,97455.02
2018-06-19T20:33:16.521Z,97389.07
2018-06-19T20:35:45.013Z,97404.29
2018-06-19T20:38:13.469Z,97424.58
2018-06-19T20:40:42.037Z,97416.46
2018-06-19T20:43:10.595Z,97424.58
2018-06-19T20:45:39.082Z,97438.78
2018-06-19T20:48:07.628Z,97434.72
2018-06-19T20:50:36.097Z,97401.24
2018-06-19T20:53:04.656Z,97444.87
2018-06-19T20:55:33.517Z,97423.56
2018-06-19T20:58:02.010Z,97430.66
2018-06-19T21:00:30.477Z,97463.13
2018-06-19T21:02:59.205Z,97463.13
2018-06-19T21:05:27.780Z,97459.07
2018-06-19T21:07:56.383Z,97468.20
2018-06-19T21:10:25.001Z,97478.34
2018-06-19T21:12:53.642Z,97471.25
2018-06-19T21:15:22.334Z,97459.07
2018-06-19T21:17:50.942Z,97469.22
2018-06-19T21:20:19.539Z,97491.54
2018-06-19T21:22:48.105Z,97484.44
2018-06-19T21:25:16.717Z,97469.22
2018-06-19T21:27:45.385Z,97475.30
2018-06-19T21:30:13.941Z,97440.81
2018-06-19T21:32:42.516Z,97469.22
2018-06-19T21:35:11.124Z,97462.12
2018-06-19T21:37:39.735Z,97459.07
2018-06-19T21:40:08.320Z,97470.23
2018-06-19T21:42:36.926Z,97441.83
2018-06-19T21:45:05.511Z,97428.64
2018-06-19T21:47:34.088Z,97477.34
2018-06-19T21:50:02.738Z,97485.45
2018-06-19T21:52:31.342Z,97491.54
2018-06-19T21:55:00.057Z,97474.30
2018-06-19T21:57:28.612Z,97477.34
2018-06-19T21:59:57.178Z,97478.34
2018-06-19T22:02:30.921Z,97472.27
2018-06-19T22:04:59.681Z,97481.39
2018-06-19T22:07:28.301Z,97485.45
2018-06-19T22:09:56.854Z,97469.22
2018-06-19T22:12:25.447Z,97504.73
2018-06-19T22:14:54.099Z,97507.77
2018-06-19T22:17:22.699Z,97525.02
2018-06-19T22:19:51.286Z,97518.94
2018-06-19T22:22:20.135Z,97490.52
2018-06-19T22:24:50.649Z,97505.74
2018-06-19T22:27:19.317Z,97489.52
2018-06-19T22:29:47.872Z,97515.89
2018-06-19T22:32:16.483Z,97528.06
2018-06-19T22:34:45.097Z,97532.13
2018-06-19T22:37:14.337Z,97517.92
2018-06-19T22:39:42.933Z,97518.94
2018-06-19T22:42:11.513Z,97475.30
2018-06-19T22:44:40.146Z,97484.44
2018-06-19T22:47:08.721Z,97528.06
2018-06-19T22:49:37.373Z,97539.22
2018-06-19T22:52:05.962Z,97526.03
2018-06-19T22:54:34.505Z,97527.05
2018-06-19T22:57:03.166Z,97558.50
2018-06-19T22:59:31.732Z,97525.02
2018-06-19T23:02:00.307Z,97535.16
2018-06-19T23:04:28.884Z,97520.96
2018-06-19T23:06:57.441Z,97482.41
2018-06-19T23:09:26.114Z,97551.40
2018-06-19T23:11:54.682Z,97558.50
2018-06-19T23:14:23.237Z,97533.14
2018-06-19T23:16:51.878Z,97568.64
2018-06-19T23:19:20.450Z,97554.44
2018-06-19T23:21:49.005Z,97520.96
2018-06-19T23:24:17.651Z,97574.73
2018-06-19T23:26:46.345Z,97541.25
2018-06-19T23:29:14.926Z,97508.78
2018-06-19T23:31:43.537Z,97531.11
2018-06-19T23:34:12.149Z,97518.94
2018-06-19T23:36:40.729Z,97557.48
2018-06-19T23:39:10.075Z,97552.41
2018-06-19T23:41:38.729Z,97624.45
2018-06-19T23:44:07.335Z,97602.13
2018-06-19T23:46:35.905Z,97581.84
2018-06-19T23:49:04.546Z,97560.53
2018-06-19T23:51:33.101Z,97596.04
2018-06-19T23:54:01.730Z,97602.13
2018-06-19T23:56:30.317Z,97596.04
2018-06-19T23:58:58.942Z,97624.45
